sensor_id;sensor_type;location;lat;lon;timestamp;pressure;altitude;pressure_sealevel;temperature;humidity
55550;BME280;41397;49.972;18.944;2022-12-17T00:00:24;101791.45;;;-0.11;85.80
55550;BME280;41397;49.972;18.944;2022-12-17T00:03:43;101795.11;;;-0.15;85.84
55550;BME280;41397;49.972;18.944;2022-12-17T00:07:01;101795.41;;;-0.29;85.56
55550;BME280;41397;49.972;18.944;2022-12-17T00:10:20;101796.29;;;-0.28;85.86
55550;BME280;41397;49.972;18.944;2022-12-17T00:13:38;101796.34;;;-0.30;85.86
55550;BME280;41397;49.972;18.944;2022-12-17T00:16:57;101812.13;;;-0.14;85.77
55550;BME280;41397;49.972;18.944;2022-12-17T00:20:16;101815.66;;;-0.11;85.54
55550;BME280;41397;49.972;18.944;2022-12-17T00:23:37;101812.41;;;-0.28;85.48
55550;BME280;41397;49.972;18.944;2022-12-17T00:26:53;101816.48;;;-0.52;85.85
55550;BME280;41397;49.972;18.944;2022-12-17T00:30:11;101825.23;;;-0.41;86.00
55550;BME280;41397;49.972;18.944;2022-12-17T00:33:30;101823.30;;;-0.34;86.05
55550;BME280;41397;49.972;18.944;2022-12-17T00:36:49;101818.80;;;-0.34;85.92
55550;BME280;41397;49.972;18.944;2022-12-17T00:40:08;101818.13;;;-0.45;85.87
55550;BME280;41397;49.972;18.944;2022-12-17T00:43:26;101822.49;;;-0.39;85.99
55550;BME280;41397;49.972;18.944;2022-12-17T00:46:44;101826.05;;;-0.37;85.98
55550;BME280;41397;49.972;18.944;2022-12-17T00:50:03;101827.66;;;-0.29;85.72
55550;BME280;41397;49.972;18.944;2022-12-17T00:53:22;101828.54;;;-0.28;85.53
55550;BME280;41397;49.972;18.944;2022-12-17T00:56:40;101825.04;;;-0.32;85.18
55550;BME280;41397;49.972;18.944;2022-12-17T00:59:59;101821.32;;;-0.25;85.08
55550;BME280;41397;49.972;18.944;2022-12-17T01:03:17;101836.48;;;-0.22;84.97
55550;BME280;41397;49.972;18.944;2022-12-17T01:06:36;101829.42;;;-0.28;84.79
55550;BME280;41397;49.972;18.944;2022-12-17T01:09:55;101841.02;;;-0.24;84.70
55550;BME280;41397;49.972;18.944;2022-12-17T01:13:15;101850.03;;;-0.27;84.70
55550;BME280;41397;49.972;18.944;2022-12-17T01:16:33;101858.97;;;-0.26;84.69
55550;BME280;41397;49.972;18.944;2022-12-17T01:19:50;101870.20;;;-0.51;84.66
55550;BME280;41397;49.972;18.944;2022-12-17T01:23:09;101858.42;;;-0.43;85.00
55550;BME280;41397;49.972;18.944;2022-12-17T01:26:28;101871.67;;;-0.34;84.92
55550;BME280;41397;49.972;18.944;2022-12-17T01:29:46;101870.74;;;-0.33;85.04
55550;BME280;41397;49.972;18.944;2022-12-17T01:33:06;101868.11;;;-0.35;85.05
55550;BME280;41397;49.972;18.944;2022-12-17T01:36:23;101872.75;;;-0.43;84.98
55550;BME280;41397;49.972;18.944;2022-12-17T01:39:42;101873.42;;;-0.32;84.91
55550;BME280;41397;49.972;18.944;2022-12-17T01:43:01;101863.55;;;-0.31;84.70
55550;BME280;41397;49.972;18.944;2022-12-17T01:46:20;101859.92;;;-0.29;84.58
55550;BME280;41397;49.972;18.944;2022-12-17T01:49:38;101860.84;;;-0.30;84.47
55550;BME280;41397;49.972;18.944;2022-12-17T01:52:59;101868.00;;;-0.30;84.41
55550;BME280;41397;49.972;18.944;2022-12-17T01:56:16;101870.60;;;-0.26;84.50
55550;BME280;41397;49.972;18.944;2022-12-17T02:03:01;101862.59;;;-0.27;83.83
55550;BME280;41397;49.972;18.944;2022-12-17T02:06:24;101851.18;;;-0.40;84.36
55550;BME280;41397;49.972;18.944;2022-12-17T02:09:49;101850.24;;;-0.37;84.37
55550;BME280;41397;49.972;18.944;2022-12-17T02:13:17;101856.62;;;-0.43;84.15
55550;BME280;41397;49.972;18.944;2022-12-17T02:16:37;101845.87;;;-0.43;84.16
55550;BME280;41397;49.972;18.944;2022-12-17T02:20:11;101835.25;;;-0.49;84.16
55550;BME280;41397;49.972;18.944;2022-12-17T02:26:48;101827.88;;;-0.39;84.06
55550;BME280;41397;49.972;18.944;2022-12-17T02:30:06;101826.21;;;-0.47;83.86
55550;BME280;41397;49.972;18.944;2022-12-17T02:33:19;101820.76;;;-0.42;83.79
55550;BME280;41397;49.972;18.944;2022-12-17T02:36:35;101828.08;;;-0.50;83.62
55550;BME280;41397;49.972;18.944;2022-12-17T02:39:48;101842.59;;;-0.60;83.69
55550;BME280;41397;49.972;18.944;2022-12-17T02:43:02;101872.89;;;-0.52;83.57
55550;BME280;41397;49.972;18.944;2022-12-17T02:46:17;101912.19;;;-0.45;83.60
55550;BME280;41397;49.972;18.944;2022-12-17T02:49:31;101909.50;;;-0.45;83.59
55550;BME280;41397;49.972;18.944;2022-12-17T02:52:47;101929.13;;;-0.41;83.50
55550;BME280;41397;49.972;18.944;2022-12-17T02:56:01;101956.88;;;-0.39;83.37
55550;BME280;41397;49.972;18.944;2022-12-17T02:59:14;101967.55;;;-0.35;83.33
55550;BME280;41397;49.972;18.944;2022-12-17T03:02:28;101955.82;;;-0.31;83.35
55550;BME280;41397;49.972;18.944;2022-12-17T03:05:47;101954.92;;;-0.30;83.12
55550;BME280;41397;49.972;18.944;2022-12-17T03:09:05;101963.83;;;-0.28;83.08
55550;BME280;41397;49.972;18.944;2022-12-17T03:12:24;101972.00;;;-0.34;82.73
55550;BME280;41397;49.972;18.944;2022-12-17T03:15:43;101983.75;;;-0.39;82.59
55550;BME280;41397;49.972;18.944;2022-12-17T03:19:02;101992.63;;;-0.34;82.97
55550;BME280;41397;49.972;18.944;2022-12-17T03:22:20;101998.81;;;-0.29;82.90
55550;BME280;41397;49.972;18.944;2022-12-17T03:25:38;101990.86;;;-0.35;82.64
55550;BME280;41397;49.972;18.944;2022-12-17T03:28:57;101979.95;;;-0.28;82.66
55550;BME280;41397;49.972;18.944;2022-12-17T03:32:16;101956.35;;;-0.60;82.47
55550;BME280;41397;49.972;18.944;2022-12-17T03:35:34;101962.50;;;-0.53;82.67
55550;BME280;41397;49.972;18.944;2022-12-17T03:38:53;101973.06;;;-0.44;82.64
55550;BME280;41397;49.972;18.944;2022-12-17T03:42:11;101976.68;;;-0.45;82.32
55550;BME280;41397;49.972;18.944;2022-12-17T03:45:30;101962.50;;;-0.55;82.23
55550;BME280;41397;49.972;18.944;2022-12-17T03:48:49;101957.13;;;-0.55;82.23
55550;BME280;41397;49.972;18.944;2022-12-17T03:52:08;101959.00;;;-0.58;82.01
55550;BME280;41397;49.972;18.944;2022-12-17T03:55:26;101942.17;;;-0.70;82.12
55550;BME280;41397;49.972;18.944;2022-12-17T03:58:44;101943.04;;;-0.68;82.09
55550;BME280;41397;49.972;18.944;2022-12-17T04:02:03;101933.12;;;-0.64;82.07
55550;BME280;41397;49.972;18.944;2022-12-17T04:05:22;101933.24;;;-0.72;82.09
55550;BME280;41397;49.972;18.944;2022-12-17T04:08:40;101940.31;;;-0.66;82.17
55550;BME280;41397;49.972;18.944;2022-12-17T04:11:59;101942.18;;;-0.71;82.18
55550;BME280;41397;49.972;18.944;2022-12-17T04:15:18;101943.11;;;-0.72;82.07
55550;BME280;41397;49.972;18.944;2022-12-17T04:18:36;101949.59;;;-0.85;82.00
55550;BME280;41397;49.972;18.944;2022-12-17T04:21:55;101944.16;;;-0.81;82.14
55550;BME280;41397;49.972;18.944;2022-12-17T04:25:14;101958.47;;;-0.80;82.02
55550;BME280;41397;49.972;18.944;2022-12-17T04:28:32;101973.81;;;-0.88;82.10
55550;BME280;41397;49.972;18.944;2022-12-17T04:31:50;101980.10;;;-0.90;82.16
55550;BME280;41397;49.972;18.944;2022-12-17T04:35:09;101985.42;;;-0.86;82.26
55550;BME280;41397;49.972;18.944;2022-12-17T04:38:28;102006.91;;;-0.86;82.17
55550;BME280;41397;49.972;18.944;2022-12-17T04:41:46;102014.90;;;-0.82;82.48
55550;BME280;41397;49.972;18.944;2022-12-17T04:45:05;102022.39;;;-1.05;82.43
55550;BME280;41397;49.972;18.944;2022-12-17T04:48:24;102016.09;;;-1.03;82.65
55550;BME280;41397;49.972;18.944;2022-12-17T04:51:42;102022.25;;;-0.96;82.43
55550;BME280;41397;49.972;18.944;2022-12-17T04:55:01;102016.09;;;-1.03;82.66
55550;BME280;41397;49.972;18.944;2022-12-17T04:58:19;102015.02;;;-0.91;82.55
55550;BME280;41397;49.972;18.944;2022-12-17T05:01:38;102024.77;;;-0.84;82.43
55550;BME280;41397;49.972;18.944;2022-12-17T05:04:57;102030.98;;;-0.80;82.27
55550;BME280;41397;49.972;18.944;2022-12-17T05:08:15;102034.55;;;-0.80;82.32
55550;BME280;41397;49.972;18.944;2022-12-17T05:11:34;102031.85;;;-0.78;82.27
55550;BME280;41397;49.972;18.944;2022-12-17T05:14:52;102033.66;;;-0.79;82.33
55550;BME280;41397;49.972;18.944;2022-12-17T05:18:11;102037.18;;;-0.77;82.22
55550;BME280;41397;49.972;18.944;2022-12-17T05:21:30;102051.49;;;-0.75;82.20
55550;BME280;41397;49.972;18.944;2022-12-17T05:24:48;102045.19;;;-0.72;82.29
55550;BME280;41397;49.972;18.944;2022-12-17T05:28:07;102032.63;;;-0.70;82.26
55550;BME280;41397;49.972;18.944;2022-12-17T05:31:25;102043.43;;;-0.75;82.01
55550;BME280;41397;49.972;18.944;2022-12-17T05:34:44;102057.78;;;-0.76;82.21
55550;BME280;41397;49.972;18.944;2022-12-17T05:38:07;102056.07;;;-0.81;82.26
55550;BME280;41397;49.972;18.944;2022-12-17T05:41:21;102023.12;;;-0.93;82.46
55550;BME280;41397;49.972;18.944;2022-12-17T05:44:40;102056.91;;;-0.79;82.42
55550;BME280;41397;49.972;18.944;2022-12-17T05:47:59;102063.21;;;-0.80;82.37
55550;BME280;41397;49.972;18.944;2022-12-17T05:51:18;102067.60;;;-0.75;82.41
55550;BME280;41397;49.972;18.944;2022-12-17T05:54:36;102081.88;;;-0.71;82.24
55550;BME280;41397;49.972;18.944;2022-12-17T05:58:04;102090.89;;;-0.74;82.08
55550;BME280;41397;49.972;18.944;2022-12-17T06:01:17;102087.27;;;-0.73;82.17
55550;BME280;41397;49.972;18.944;2022-12-17T06:04:32;102081.92;;;-0.74;82.17
55550;BME280;41397;49.972;18.944;2022-12-17T06:07:50;102093.59;;;-0.77;82.19
55550;BME280;41397;49.972;18.944;2022-12-17T06:11:09;102105.17;;;-0.72;82.17
55550;BME280;41397;49.972;18.944;2022-12-17T06:14:27;102119.66;;;-0.82;82.12
55550;BME280;41397;49.972;18.944;2022-12-17T06:17:53;102141.27;;;-0.94;82.37
55550;BME280;41397;49.972;18.944;2022-12-17T06:21:06;102144.76;;;-0.87;82.49
55550;BME280;41397;49.972;18.944;2022-12-17T06:24:23;102148.42;;;-0.93;82.79
55550;BME280;41397;49.972;18.944;2022-12-17T06:27:42;102124.23;;;-0.92;82.84
55550;BME280;41397;49.972;18.944;2022-12-17T06:31:00;102118.87;;;-0.92;82.78
55550;BME280;41397;49.972;18.944;2022-12-17T06:34:22;102131.37;;;-0.89;82.75
55550;BME280;41397;49.972;18.944;2022-12-17T06:37:38;102134.11;;;-0.94;82.69
55550;BME280;41397;49.972;18.944;2022-12-17T06:40:59;102148.37;;;-0.88;82.51
55550;BME280;41397;49.972;18.944;2022-12-17T06:44:15;102165.32;;;-0.85;82.41
55550;BME280;41397;49.972;18.944;2022-12-17T06:47:34;102166.37;;;-0.95;82.15
55550;BME280;41397;49.972;18.944;2022-12-17T06:50:53;102182.48;;;-0.97;82.39
55550;BME280;41397;49.972;18.944;2022-12-17T06:54:11;102200.43;;;-1.02;82.27
55550;BME280;41397;49.972;18.944;2022-12-17T06:57:29;102199.70;;;-1.18;82.43
55550;BME280;41397;49.972;18.944;2022-12-17T07:00:51;102199.70;;;-1.16;82.38
55550;BME280;41397;49.972;18.944;2022-12-17T07:04:07;102207.65;;;-1.07;82.15
55550;BME280;41397;49.972;18.944;2022-12-17T07:07:25;102215.92;;;-1.27;82.08
55550;BME280;41397;49.972;18.944;2022-12-17T07:10:44;102217.62;;;-1.17;81.86
55550;BME280;41397;49.972;18.944;2022-12-17T07:14:02;102214.09;;;-1.23;82.15
55550;BME280;41397;49.972;18.944;2022-12-17T07:17:21;102215.10;;;-1.33;81.90
55550;BME280;41397;49.972;18.944;2022-12-17T07:20:40;102224.90;;;-1.29;81.74
55550;BME280;41397;49.972;18.944;2022-12-17T07:23:58;102234.78;;;-1.33;81.49
55550;BME280;41397;49.972;18.944;2022-12-17T07:27:17;102239.16;;;-1.26;81.60
55550;BME280;41397;49.972;18.944;2022-12-17T07:30:35;102257.03;;;-1.23;81.45
55550;BME280;41397;49.972;18.944;2022-12-17T07:33:54;102256.15;;;-1.24;81.37
55550;BME280;41397;49.972;18.944;2022-12-17T07:37:13;102262.41;;;-1.23;81.21
55550;BME280;41397;49.972;18.944;2022-12-17T07:40:31;102270.36;;;-1.11;81.23
55550;BME280;41397;49.972;18.944;2022-12-17T07:43:50;102271.24;;;-1.10;80.98
55550;BME280;41397;49.972;18.944;2022-12-17T07:47:09;102264.07;;;-1.10;81.08
55550;BME280;41397;49.972;18.944;2022-12-17T07:50:27;102274.81;;;-1.08;81.43
55550;BME280;41397;49.972;18.944;2022-12-17T07:53:46;102275.62;;;-1.00;82.10
55550;BME280;41397;49.972;18.944;2022-12-17T07:57:04;102286.46;;;-1.13;81.59
55550;BME280;41397;49.972;18.944;2022-12-17T08:00:23;102290.81;;;-0.98;82.06
55550;BME280;41397;49.972;18.944;2022-12-17T08:03:42;102306.85;;;-0.93;82.10
55550;BME280;41397;49.972;18.944;2022-12-17T08:07:00;102307.77;;;-0.93;82.38
55550;BME280;41397;49.972;18.944;2022-12-17T08:10:22;102323.89;;;-0.96;81.80
55550;BME280;41397;49.972;18.944;2022-12-17T08:13:37;102327.28;;;-0.77;82.20
55550;BME280;41397;49.972;18.944;2022-12-17T08:16:56;102322.76;;;-0.72;82.19
55550;BME280;41397;49.972;18.944;2022-12-17T08:20:15;102314.91;;;-0.92;81.22
55550;BME280;41397;49.972;18.944;2022-12-17T08:23:33;102314.00;;;-0.89;81.52
55550;BME280;41397;49.972;18.944;2022-12-17T08:26:52;102328.16;;;-0.75;82.00
55550;BME280;41397;49.972;18.944;2022-12-17T08:30:11;102337.34;;;-0.97;81.15
55550;BME280;41397;49.972;18.944;2022-12-17T08:33:29;102340.82;;;-0.84;81.69
55550;BME280;41397;49.972;18.944;2022-12-17T08:36:48;102337.15;;;-0.77;80.87
55550;BME280;41397;49.972;18.944;2022-12-17T08:40:07;102335.34;;;-0.74;81.19
55550;BME280;41397;49.972;18.944;2022-12-17T08:43:25;102343.27;;;-0.63;80.86
55550;BME280;41397;49.972;18.944;2022-12-17T08:46:44;102354.73;;;-0.47;80.61
55550;BME280;41397;49.972;18.944;2022-12-17T08:50:03;102353.93;;;-0.55;79.84
55550;BME280;41397;49.972;18.944;2022-12-17T08:53:21;102354.96;;;-0.67;79.59
55550;BME280;41397;49.972;18.944;2022-12-17T08:56:39;102344.22;;;-0.69;80.33
55550;BME280;41397;49.972;18.944;2022-12-17T08:59:58;102347.56;;;-0.45;80.65
55550;BME280;41397;49.972;18.944;2022-12-17T09:03:17;102353.70;;;-0.34;79.61
55550;BME280;41397;49.972;18.944;2022-12-17T09:06:35;102355.34;;;-0.20;79.21
55550;BME280;41397;49.972;18.944;2022-12-17T09:09:55;102355.51;;;-0.34;78.01
55550;BME280;41397;49.972;18.944;2022-12-17T09:13:13;102361.68;;;-0.25;78.13
55550;BME280;41397;49.972;18.944;2022-12-17T09:16:32;102354.41;;;-0.18;77.74
55550;BME280;41397;49.972;18.944;2022-12-17T09:19:51;102348.41;;;-0.41;77.04
55550;BME280;41397;49.972;18.944;2022-12-17T09:23:14;102355.51;;;-0.36;77.44
55550;BME280;41397;49.972;18.944;2022-12-17T09:26:28;102358.91;;;-0.18;77.37
55550;BME280;41397;49.972;18.944;2022-12-17T09:29:46;102356.84;;;0.04;77.72
55550;BME280;41397;49.972;18.944;2022-12-17T09:33:05;102355.78;;;0.15;76.82
55550;BME280;41397;49.972;18.944;2022-12-17T09:36:24;102369.41;;;0.02;76.28
55550;BME280;41397;49.972;18.944;2022-12-17T09:39:43;102377.20;;;0.25;76.83
55550;BME280;41397;49.972;18.944;2022-12-17T09:43:05;102392.55;;;0.15;76.06
55550;BME280;41397;49.972;18.944;2022-12-17T09:46:26;102381.92;;;0.06;76.05
55550;BME280;41397;49.972;18.944;2022-12-17T09:49:41;102389.04;;;0.10;76.12
55550;BME280;41397;49.972;18.944;2022-12-17T09:52:59;102394.28;;;0.20;75.94
55550;BME280;41397;49.972;18.944;2022-12-17T09:56:18;102394.18;;;0.27;76.12
55550;BME280;41397;49.972;18.944;2022-12-17T09:59:35;102397.05;;;0.13;75.60
55550;BME280;41397;49.972;18.944;2022-12-17T10:02:53;102396.19;;;0.11;76.30
55550;BME280;41397;49.972;18.944;2022-12-17T10:06:16;102394.23;;;0.24;76.12
55550;BME280;41397;49.972;18.944;2022-12-17T10:09:33;102396.27;;;0.05;76.29
55550;BME280;41397;49.972;18.944;2022-12-17T10:12:48;102402.52;;;0.05;76.31
55550;BME280;41397;49.972;18.944;2022-12-17T10:16:55;102407.03;;;0.06;76.81
55550;BME280;41397;49.972;18.944;2022-12-17T10:19:36;102403.37;;;0.10;76.09
55550;BME280;41397;49.972;18.944;2022-12-17T10:22:52;102402.34;;;0.20;76.27
55550;BME280;41397;49.972;18.944;2022-12-17T10:26:05;102404.90;;;0.31;76.37
55550;BME280;41397;49.972;18.944;2022-12-17T10:29:23;102409.62;;;0.14;75.77
55550;BME280;41397;49.972;18.944;2022-12-17T10:32:40;102412.18;;;0.23;76.07
55550;BME280;41397;49.972;18.944;2022-12-17T10:35:59;102414.17;;;0.07;76.05
55550;BME280;41397;49.972;18.944;2022-12-17T10:39:22;102417.79;;;0.05;76.23
55550;BME280;41397;49.972;18.944;2022-12-17T10:42:38;102419.59;;;0.04;76.20
55550;BME280;41397;49.972;18.944;2022-12-17T10:45:56;102428.55;;;0.05;76.22
55550;BME280;41397;49.972;18.944;2022-12-17T10:49:22;102438.70;;;-0.20;76.42
55550;BME280;41397;49.972;18.944;2022-12-17T10:52:35;102430.47;;;-0.05;76.43
55550;BME280;41397;49.972;18.944;2022-12-17T10:55:58;102434.08;;;-0.09;76.08
55550;BME280;41397;49.972;18.944;2022-12-17T10:59:21;102440.34;;;-0.07;77.08
55550;BME280;41397;49.972;18.944;2022-12-17T11:02:31;102439.61;;;-0.23;76.47
55550;BME280;41397;49.972;18.944;2022-12-17T11:05:49;102453.05;;;-0.21;76.60
55550;BME280;41397;49.972;18.944;2022-12-17T11:09:12;102455.66;;;-0.15;76.90
55550;BME280;41397;49.972;18.944;2022-12-17T11:12:28;102445.84;;;-0.19;76.56
55550;BME280;41397;49.972;18.944;2022-12-17T11:15:51;102444.03;;;-0.17;76.63
55550;BME280;41397;49.972;18.944;2022-12-17T11:22:42;102467.27;;;-0.12;76.83
55550;BME280;41397;49.972;18.944;2022-12-17T11:26:05;102471.81;;;-0.17;76.88
55550;BME280;41397;49.972;18.944;2022-12-17T11:29:20;102472.73;;;-0.16;76.65
55550;BME280;41397;49.972;18.944;2022-12-17T11:36:09;102474.67;;;-0.32;76.83
55550;BME280;41397;49.972;18.944;2022-12-17T11:39:51;102481.85;;;-0.34;77.11
55550;BME280;41397;49.972;18.944;2022-12-17T11:42:57;102485.48;;;-0.40;76.90
55550;BME280;41397;49.972;18.944;2022-12-17T11:46:26;102488.15;;;-0.37;76.91
55550;BME280;41397;49.972;18.944;2022-12-17T11:56:38;102500.76;;;-0.45;77.86
55550;BME280;41397;49.972;18.944;2022-12-17T12:00:03;102505.95;;;-0.24;77.95
55550;BME280;41397;49.972;18.944;2022-12-17T12:10:15;102524.87;;;-0.36;77.95
55550;BME280;41397;49.972;18.944;2022-12-17T12:13:46;102529.23;;;-0.21;78.20
55550;BME280;41397;49.972;18.944;2022-12-17T12:17:15;102532.13;;;-0.46;78.18
55550;BME280;41397;49.972;18.944;2022-12-17T12:34:05;102540.87;;;-0.20;78.69
55550;BME280;41397;49.972;18.944;2022-12-17T12:37:23;102533.84;;;-0.37;78.87
55550;BME280;41397;49.972;18.944;2022-12-17T12:44:13;102541.84;;;-0.31;78.70
55550;BME280;41397;49.972;18.944;2022-12-17T12:51:02;102547.45;;;-0.58;79.30
55550;BME280;41397;49.972;18.944;2022-12-17T12:54:23;102553.56;;;-0.39;79.43
55550;BME280;41397;49.972;18.944;2022-12-17T12:57:41;102569.77;;;-0.50;79.04
55550;BME280;41397;49.972;18.944;2022-12-17T13:00:59;102577.05;;;-0.66;79.75
55550;BME280;41397;49.972;18.944;2022-12-17T13:04:27;102585.02;;;-0.49;79.40
55550;BME280;41397;49.972;18.944;2022-12-17T13:07:41;102588.52;;;-0.38;79.51
55550;BME280;41397;49.972;18.944;2022-12-17T13:10:42;102594.75;;;-0.34;79.31
55550;BME280;41397;49.972;18.944;2022-12-17T13:13:46;102594.73;;;-0.31;79.06
55550;BME280;41397;49.972;18.944;2022-12-17T13:17:06;102600.16;;;-0.39;79.36
55550;BME280;41397;49.972;18.944;2022-12-17T13:23:30;102611.03;;;-0.54;79.91
55550;BME280;41397;49.972;18.944;2022-12-17T13:26:42;102619.96;;;-0.51;79.95
55550;BME280;41397;49.972;18.944;2022-12-17T13:29:43;102624.46;;;-0.56;80.34
55550;BME280;41397;49.972;18.944;2022-12-17T13:42:35;102654.93;;;-0.58;80.05
55550;BME280;41397;49.972;18.944;2022-12-17T13:45:37;102650.32;;;-0.35;80.02
55550;BME280;41397;49.972;18.944;2022-12-17T13:48:39;102654.73;;;-0.25;80.00
55550;BME280;41397;49.972;18.944;2022-12-17T13:51:41;102662.83;;;-0.29;80.12
55550;BME280;41397;49.972;18.944;2022-12-17T13:54:42;102675.30;;;-0.22;79.98
55550;BME280;41397;49.972;18.944;2022-12-17T13:57:46;102672.57;;;-0.14;79.79
55550;BME280;41397;49.972;18.944;2022-12-17T14:00:47;102677.93;;;-0.08;79.88
55550;BME280;41397;49.972;18.944;2022-12-17T14:03:53;102674.30;;;-0.04;80.11
55550;BME280;41397;49.972;18.944;2022-12-17T14:06:58;102679.80;;;-0.23;79.28
55550;BME280;41397;49.972;18.944;2022-12-17T14:10:02;102681.53;;;-0.14;79.64
55550;BME280;41397;49.972;18.944;2022-12-17T14:13:12;102688.74;;;-0.22;79.77
55550;BME280;41397;49.972;18.944;2022-12-17T14:16:17;102692.34;;;-0.20;80.33
55550;BME280;41397;49.972;18.944;2022-12-17T14:19:23;102700.41;;;-0.18;80.39
55550;BME280;41397;49.972;18.944;2022-12-17T14:22:34;102693.29;;;-0.29;80.27
55550;BME280;41397;49.972;18.944;2022-12-17T14:25:39;102714.91;;;-0.46;80.21
55550;BME280;41397;49.972;18.944;2022-12-17T14:28:50;102717.53;;;-0.36;80.59
55550;BME280;41397;49.972;18.944;2022-12-17T14:35:03;102719.20;;;-0.17;80.31
55550;BME280;41397;49.972;18.944;2022-12-17T14:38:04;102722.80;;;-0.19;80.21
55550;BME280;41397;49.972;18.944;2022-12-17T14:41:12;102729.99;;;-0.20;80.10
55550;BME280;41397;49.972;18.944;2022-12-17T14:44:28;102730.92;;;-0.24;80.23
55550;BME280;41397;49.972;18.944;2022-12-17T14:47:32;102751.49;;;-0.20;80.18
55550;BME280;41397;49.972;18.944;2022-12-17T14:50:35;102740.78;;;-0.25;80.26
55550;BME280;41397;49.972;18.944;2022-12-17T14:53:37;102744.36;;;-0.24;80.93
55550;BME280;41397;49.972;18.944;2022-12-17T14:56:40;102751.58;;;-0.32;81.48
55550;BME280;41397;49.972;18.944;2022-12-17T14:59:41;102760.48;;;-0.23;81.28
55550;BME280;41397;49.972;18.944;2022-12-17T15:02:46;102774.79;;;-0.17;81.67
55550;BME280;41397;49.972;18.944;2022-12-17T15:08:59;102783.74;;;-0.11;81.26
55550;BME280;41397;49.972;18.944;2022-12-17T15:12:00;102787.30;;;-0.10;80.92
55550;BME280;41397;49.972;18.944;2022-12-17T15:15:01;102789.13;;;-0.15;80.53
55550;BME280;41397;49.972;18.944;2022-12-17T15:18:03;102791.81;;;-0.17;80.96
55550;BME280;41397;49.972;18.944;2022-12-17T15:21:04;102793.57;;;-0.11;80.83
55550;BME280;41397;49.972;18.944;2022-12-17T15:24:10;102795.40;;;-0.13;80.75
55550;BME280;41397;49.972;18.944;2022-12-17T15:27:18;102799.84;;;-0.08;80.80
55550;BME280;41397;49.972;18.944;2022-12-17T15:30:20;102805.23;;;-0.08;80.60
55550;BME280;41397;49.972;18.944;2022-12-17T15:33:21;102807.03;;;-0.08;80.84
55550;BME280;41397;49.972;18.944;2022-12-17T15:36:25;102808.80;;;-0.07;80.74
55550;BME280;41397;49.972;18.944;2022-12-17T15:39:26;102818.68;;;-0.14;80.47
55550;BME280;41397;49.972;18.944;2022-12-17T15:42:27;102818.68;;;-0.09;80.74
55550;BME280;41397;49.972;18.944;2022-12-17T15:45:43;102826.77;;;-0.17;80.63
55550;BME280;41397;49.972;18.944;2022-12-17T15:48:45;102820.58;;;-0.30;80.30
55550;BME280;41397;49.972;18.944;2022-12-17T15:51:46;102820.55;;;-0.28;80.85
55550;BME280;41397;49.972;18.944;2022-12-17T15:54:47;102832.24;;;-0.35;80.70
55550;BME280;41397;49.972;18.944;2022-12-17T15:57:49;102833.14;;;-0.38;80.79
55550;BME280;41397;49.972;18.944;2022-12-17T16:00:50;102847.52;;;-0.53;80.99
55550;BME280;41397;49.972;18.944;2022-12-17T16:03:52;102852.00;;;-0.58;80.91
55550;BME280;41397;49.972;18.944;2022-12-17T16:06:53;102858.27;;;-0.43;80.94
55550;BME280;41397;49.972;18.944;2022-12-17T16:09:54;102866.28;;;-0.39;80.96
55550;BME280;41397;49.972;18.944;2022-12-17T16:12:56;102868.09;;;-0.35;80.94
55550;BME280;41397;49.972;18.944;2022-12-17T16:16:00;102873.48;;;-0.42;80.57
55550;BME280;41397;49.972;18.944;2022-12-17T16:19:02;102868.14;;;-0.61;80.60
55550;BME280;41397;49.972;18.944;2022-12-17T16:22:03;102874.38;;;-0.50;80.64
55550;BME280;41397;49.972;18.944;2022-12-17T16:25:05;102883.38;;;-0.58;80.52
55550;BME280;41397;49.972;18.944;2022-12-17T16:28:08;102893.27;;;-0.68;80.56
55550;BME280;41397;49.972;18.944;2022-12-17T16:31:13;102896.83;;;-0.91;80.71
55550;BME280;41397;49.972;18.944;2022-12-17T16:34:15;102892.38;;;-0.90;81.08
55550;BME280;41397;49.972;18.944;2022-12-17T16:37:16;102900.43;;;-0.87;81.03
55550;BME280;41397;49.972;18.944;2022-12-17T16:40:19;102905.80;;;-0.73;81.12
55550;BME280;41397;49.972;18.944;2022-12-17T16:43:20;102903.97;;;-0.71;80.88
55550;BME280;41397;49.972;18.944;2022-12-17T16:46:30;102915.64;;;-0.68;80.77
55550;BME280;41397;49.972;18.944;2022-12-17T16:49:32;102916.53;;;-0.64;80.67
55550;BME280;41397;49.972;18.944;2022-12-17T16:52:34;102923.68;;;-0.66;80.69
55550;BME280;41397;49.972;18.944;2022-12-17T16:55:45;102937.13;;;-0.64;80.63
55550;BME280;41397;49.972;18.944;2022-12-17T16:58:47;102933.53;;;-0.63;80.60
55550;BME280;41397;49.972;18.944;2022-12-17T17:01:50;102941.59;;;-0.71;80.77
55550;BME280;41397;49.972;18.944;2022-12-17T17:04:52;102941.62;;;-0.65;80.65
55550;BME280;41397;49.972;18.944;2022-12-17T17:08:02;102937.13;;;-0.61;80.73
55550;BME280;41397;49.972;18.944;2022-12-17T17:11:13;102940.71;;;-0.56;80.78
55550;BME280;41397;49.972;18.944;2022-12-17T17:14:15;102949.66;;;-0.59;80.87
55550;BME280;41397;49.972;18.944;2022-12-17T17:17:17;102952.36;;;-0.62;80.89
55550;BME280;41397;49.972;18.944;2022-12-17T17:20:18;102954.13;;;-0.58;81.01
55550;BME280;41397;49.972;18.944;2022-12-17T17:23:20;102955.95;;;-0.60;80.76
55550;BME280;41397;49.972;18.944;2022-12-17T17:26:21;102975.63;;;-0.69;80.40
55550;BME280;41397;49.972;18.944;2022-12-17T17:29:23;102974.74;;;-0.89;80.21
55550;BME280;41397;49.972;18.944;2022-12-17T17:32:25;102984.59;;;-0.83;80.63
55550;BME280;41397;49.972;18.944;2022-12-17T17:35:26;102981.01;;;-0.85;80.32
55550;BME280;41397;49.972;18.944;2022-12-17T17:38:27;102984.57;;;-0.96;80.58
55550;BME280;41397;49.972;18.944;2022-12-17T17:41:30;102981.01;;;-0.85;80.38
55550;BME280;41397;49.972;18.944;2022-12-17T17:44:32;102985.48;;;-0.83;80.62
55550;BME280;41397;49.972;18.944;2022-12-17T17:47:33;102989.94;;;-0.85;80.24
55550;BME280;41397;49.972;18.944;2022-12-17T17:50:34;102999.80;;;-0.88;79.88